WetterOnline ( https://www.wetteronline.de )

Wetter aktuell Konstanz

Aktuelles Wetter: Konstanz (397m)

6-stündlich | Neueste Meldungen
Ortszeit Temperatur Wetter
Do, 29.09. 2:00 7.6° C bedeckt
Mi, 28.09. 20:00 8.5° C leichter Regen
Mi, 28.09. 14:00 9.9° C leichter Regen
Mi, 28.09. 8:00 8.9° C leichter Regen
Mi, 28.09. 2:00 9.7° C bedeckt
Di, 27.09. 20:00 9.4° C Sprühregen
Di, 27.09. 14:00 10.1° C Regen
Di, 27.09. 8:00 9.6° C bewölkt
Ortszeit Temperatur Wetter
Do, 29.09. 7:00 7.8° C leichter Regen
Do, 29.09. 6:30 7.9° C Sprühregen
Do, 29.09. 6:20 7.9° C Sprühregen
Do, 29.09. 6:10 7.7° C leichter Regen
Do, 29.09. 6:00 7.5° C leichter Regen
Do, 29.09. 5:50 7.5° C leichter Regen
Do, 29.09. 5:30 7.3° C Sprühregen
Do, 29.09. 5:00 7.3° C leichter Regen
Do, 29.09. 4:30 7.2° C bewölkt
Do, 29.09. 4:00 7.5° C Sprühregen
Ortszeit Relative Feuchte Sichtweite
Do, 29.09. 2:00 97% 55 km
Mi, 28.09. 20:00 95% 22 km
Mi, 28.09. 14:00 87% 23 km
Mi, 28.09. 8:00 94% 17 km
Mi, 28.09. 2:00 84% >70 km
Di, 27.09. 20:00 82% 18 km
Di, 27.09. 14:00 77% 55 km
Di, 27.09. 8:00 83% 65 km
Ortszeit Relative Feuchte Sichtweite
Do, 29.09. 7:00 96% 30 km
Do, 29.09. 6:30 95% 40 km
Do, 29.09. 6:20 95% -
Do, 29.09. 6:10 97% -
Do, 29.09. 6:00 98% 35 km
Do, 29.09. 5:50 98% -
Do, 29.09. 5:30 98% 35 km
Do, 29.09. 5:00 97% 55 km
Do, 29.09. 4:30 98% 45 km
Do, 29.09. 4:00 98% 50 km
Ortszeit Niederschlagsmenge Niederschlagsart
Do, 29.09. 2:00 2 l/m2 in 6 Std. Regen
Mi, 28.09. 20:00 19 l/m2 in 12 Std. Regen
Mi, 28.09. 14:00 6 l/m2 in 6 Std. Regen
Mi, 28.09. 8:00 8 l/m2 in 12 Std. Regen
Mi, 28.09. 2:00 0.6 l/m2 in 6 Std. Regen
Di, 27.09. 20:00 4 l/m2 in 12 Std. Regen
Di, 27.09. 14:00 3 l/m2 in 6 Std. Regen
Di, 27.09. 8:00 3 l/m2 in 12 Std. Regen
Ortszeit Niederschlagsmenge Niederschlagsart
Do, 29.09. 7:00 keine Meldung -
Do, 29.09. 6:30 0.1 l/m2 in 1 Std. -
Do, 29.09. 6:20 keine Meldung -
Do, 29.09. 6:10 keine Meldung -
Do, 29.09. 6:00 <0.05 l/m2 in 1 Std. Regen
Do, 29.09. 5:50 keine Meldung -
Do, 29.09. 5:30 <0.05 l/m2 in 1 Std. -
Do, 29.09. 5:00 <0.05 l/m2 in 1 Std. Regen
Do, 29.09. 4:30 <0.05 l/m2 in 1 Std. Schnee
Do, 29.09. 4:00 <0.05 l/m2 in 1 Std. Regen
Ortszeit Stärke Spitze Richtung
km/h Bft. km/h Grad Sektor
Do, 29.09. 2:00 4 1 14 50° NO
Mi, 28.09. 20:00 4 1 14 310° NW
Mi, 28.09. 14:00 6 1 33 330° NW
Mi, 28.09. 8:00 13 3 31 210° SW
Mi, 28.09. 2:00 14 3 40 240° SW
Di, 27.09. 20:00 22 4 54 240° SW
Di, 27.09. 14:00 28 4 48 260° W
Di, 27.09. 8:00 26 4 54 250° W
Ortszeit Stärke Spitze Richtung
km/h Bft. km/h Grad Sektor
Do, 29.09. 7:00 4 1 7 50° NO
Do, 29.09. 6:30 7 2 7 30° NO
Do, 29.09. 6:20 7 2 - 30° NO
Do, 29.09. 6:10 4 1 - 40° NO
Do, 29.09. 6:00 4 1 7 30° NO
Do, 29.09. 5:50 4 1 - 30° NO
Do, 29.09. 5:30 4 1 4 60° NO
Do, 29.09. 5:00 4 1 7 20° N
Do, 29.09. 4:30 4 1 4 60° NO
Do, 29.09. 4:00 4 1 7 340° N
Ortszeit Untergrenze Bedeckung Gattung
total tief tief mittel hoch
Do, 29.09. 2:00 1380 m 8/8 8/8 - - -
Mi, 28.09. 20:00 270 m 7/8 7/8 - - -
Mi, 28.09. 14:00 930 m 8/8 8/8 - - -
Mi, 28.09. 8:00 270 m 8/8 8/8 - - -
Mi, 28.09. 2:00 570 m 8/8 8/8 - - -
Di, 27.09. 20:00 630 m 7/8 7/8 - - -
Di, 27.09. 14:00 1110 m 8/8 7/8 - - -
Di, 27.09. 8:00 480 m 7/8 7/8 - - -
Ortszeit Bedeckungsgrad in Achtel und Wolkenuntergrenze
Do, 29.09. 7:00 8(1500m)
Do, 29.09. 6:30 8(1500m) 8(3000m) 8(3900m)
Do, 29.09. 6:20 8(1500m) 8(3000m) 8(3900m)
Do, 29.09. 6:10 8
Do, 29.09. 6:00 3(1410m) 7(1500m) 7(3300m)
Do, 29.09. 5:50 3(1410m) 7(1500m) 7(3300m)
Do, 29.09. 5:30 8(1500m) 8(2100m) 8(2400m)
Do, 29.09. 5:00 5(1410m) 8(1500m) 8(3600m)
Do, 29.09. 4:30 5(1500m) 8(3900m) 8(4500m)
Do, 29.09. 4:00 4(1380m) 8(2700m) 8(4200m)
Ortszeit Luftdruck NN (hPa) Tendenz (hPa in 3 Std.)
Do, 29.09. 2:00 1003 - 0,5
Mi, 28.09. 20:00 1002 + 0,8
Mi, 28.09. 14:00 1001 + 0,8
Mi, 28.09. 8:00 999 - 1,5
Mi, 28.09. 2:00 1003 - 1,8
Di, 27.09. 20:00 1005 + 0,8
Di, 27.09. 14:00 1005 - 0,6
Di, 27.09. 8:00 1003 + 1,2
Ortszeit Luftdruck NN (hPa) Tendenz (hPa in 3 Std.)
Do, 29.09. 7:00 1002 - 0,3
Do, 29.09. 6:30 1002 - 0,5
Do, 29.09. 6:20 1002 keine Meldung
Do, 29.09. 6:10 1002 keine Meldung
Do, 29.09. 6:00 1002 - 0,5
Do, 29.09. 5:50 1002 keine Meldung
Do, 29.09. 5:30 1002 - 0,9
Do, 29.09. 5:00 1002 - 1,0
Do, 29.09. 4:30 1002 - 0,7
Do, 29.09. 4:00 1002 - 0,9
Ortszeit Schneehöhe (cm)
Do, 29.09. 2:00 0
Mi, 28.09. 20:00 0
Mi, 28.09. 14:00 0
Mi, 28.09. 8:00 0
Mi, 28.09. 2:00 0
Di, 27.09. 20:00 0
Di, 27.09. 14:00 0
Di, 27.09. 8:00 0
Ortszeit Schneehöhe (cm)
Do, 29.09. 7:00 -
Do, 29.09. 6:30 0
Do, 29.09. 6:20 0
Do, 29.09. 6:10 0
Do, 29.09. 6:00 0
Do, 29.09. 5:50 0
Do, 29.09. 5:30 0
Do, 29.09. 5:00 0
Do, 29.09. 4:30 0
Do, 29.09. 4:00 0
Link zu dieser Seite / Seite empfehlen

Das Wetter in ...